Disclaimer

Please do not use the information listed here in-flight or in-navigation, as they are not provided to us by the airports but are provided by volunteers, so they might be outdated.

Search


Regions


Airport information page

Radio informations:
BEEK TWR - 119.475 MHz
BEEK GND - 121.825 MHz

Airport informations:
Latitude: 50° 54' 41.97" N
Longitude: 005° 46' 12.52" E
Elevation: 375 feet - 114 meters
Operating hours: Remarks
Operating agency: Civil government, landing fees and diplomatic clearance may be required
Timezone: UTC+1(+2DT) - Last Sunday in March to last Sunday in October
Fuel: N/A

Runway information:
03/21 - 8202 x 148 feet< - >2500 x 45 meters

Recent METARs:
EHBK 180855Z AUTO 06009KT 9999 NSC 01/M02 Q1028 NOSIG
EHBK 180925Z AUTO 05009KT 9999 NSC 02/M02 Q1028 NOSIG
EHBK 180955Z AUTO 04010KT 9999 NSC 03/M01 Q1028 NOSIG

Airport on the map: